Relampago, Texas
Current Conditions -  °F | °C
As of 11:50 AM on Friday 31 Oct 2014 (Local Time) from KT65 Reporting Station
Thunderstorm Thunderstorm  
Wind Chill: 20°   Ceiling: 3500
Heat Index: 20°   Visibility: 10mi
Dew Point: 18°   Wind: 24mph
Humidity: 83%   Direction: 30°NNE
Pressure: 30.21"   Gusts: 31mph
Location:  26.1456°N, 97.91°W
Report Text: KT65 311650Z AUTO 03021G27KT 10SM -VCTSDZ SCT011 BKN035 OVC041 21/18 A3021 RMK AO2 LTG DSNT E T02050175
Loading
Personal Weather Stations






























Interactive Weather Map
Tropical Storm Tracking
New forecast layout! Learn more

10-Day Weather Forecast

Advertisements
Track Severe Weather on mobile